createdAt,value
2019-05-17T00:00:57.173Z,47.409306
2019-05-17T00:02:00.292Z,47.409395
2019-05-17T00:03:03.299Z,47.409440
2019-05-17T00:04:07.189Z,47.409431
2019-05-17T00:05:10.279Z,47.409394
2019-05-17T00:06:13.329Z,47.409365
2019-05-17T00:07:16.716Z,47.409430
2019-05-17T00:08:31.016Z,47.409348
2019-05-17T00:09:28.284Z,47.409505
2019-05-17T00:10:30.335Z,47.409490
2019-05-17T00:11:33.290Z,47.409364
2019-05-17T00:12:36.960Z,47.409363
2019-05-17T00:13:40.290Z,47.409323
2019-05-17T00:14:43.260Z,47.409467
2019-05-17T00:15:47.378Z,47.409405
2019-05-17T00:16:50.312Z,47.409424
2019-05-17T00:17:53.328Z,47.409518
2019-05-17T00:18:56.804Z,47.409551
2019-05-17T00:19:59.477Z,47.409508
2019-05-17T00:21:02.294Z,47.409433
2019-05-17T00:22:07.316Z,47.409504
2019-05-17T00:23:10.299Z,47.409216
2019-05-17T00:24:13.287Z,47.409369
2019-05-17T00:25:16.663Z,47.409636
2019-05-17T00:26:18.304Z,47.409547
2019-05-17T00:27:21.344Z,47.409531
2019-05-17T00:28:26.739Z,47.409544
2019-05-17T00:29:30.292Z,47.409582
2019-05-17T00:30:33.293Z,47.409574
2019-05-17T00:31:36.968Z,47.409515
2019-05-17T00:32:40.342Z,47.409542
2019-05-17T00:33:43.278Z,47.409503
2019-05-17T00:34:46.982Z,47.409409
2019-05-17T00:35:50.283Z,47.409413
2019-05-17T00:36:53.302Z,47.409413
2019-05-17T00:37:57.081Z,47.409420
2019-05-17T00:39:00.291Z,47.409411
2019-05-17T00:40:03.279Z,47.409339
2019-05-17T00:41:07.084Z,47.409355
2019-05-17T00:42:10.312Z,47.409377
2019-05-17T00:43:13.335Z,47.409415
2019-05-17T00:44:16.784Z,47.409382
2019-05-17T00:45:20.271Z,47.409391
2019-05-17T00:46:23.304Z,47.409422
2019-05-17T00:47:26.565Z,47.409462
2019-05-17T00:48:29.365Z,47.409403
2019-05-17T00:49:32.284Z,47.409429
2019-05-17T00:50:37.771Z,47.409402
2019-05-17T00:51:41.296Z,47.409378
2019-05-17T00:52:44.318Z,47.409377
2019-05-17T00:53:47.319Z,47.409411
2019-05-17T00:54:50.289Z,47.409415
2019-05-17T00:55:53.296Z,47.409406
2019-05-17T00:56:56.692Z,47.409432
2019-05-17T00:58:00.310Z,47.409461
2019-05-17T00:59:03.284Z,47.409445
2019-05-17T01:00:08.296Z,47.409449
2019-05-17T01:01:11.299Z,47.409410
2019-05-17T01:02:16.183Z,47.409445
2019-05-17T01:03:19.310Z,47.409396
2019-05-17T01:04:21.271Z,47.409392
2019-05-17T01:05:24.304Z,47.409388
2019-05-17T01:06:27.641Z,47.409407
2019-05-17T01:07:31.384Z,47.409444
2019-05-17T01:08:34.280Z,47.409429
2019-05-17T01:09:37.279Z,47.409427
2019-05-17T01:10:40.327Z,47.409399
2019-05-17T01:11:43.324Z,47.409366
2019-05-17T01:12:48.205Z,47.409390
2019-05-17T01:13:51.281Z,47.409419
2019-05-17T01:14:54.304Z,47.409396
2019-05-17T01:15:56.696Z,47.409392
2019-05-17T01:17:00.301Z,47.409349
2019-05-17T01:18:03.300Z,47.409402
2019-05-17T01:19:06.858Z,47.409455
2019-05-17T01:20:10.277Z,47.409400
2019-05-17T01:21:13.303Z,47.409353
2019-05-17T01:22:16.854Z,47.409372
2019-05-17T01:23:20.344Z,47.409408
2019-05-17T01:24:23.298Z,47.409401
2019-05-17T01:25:27.276Z,47.409420
2019-05-17T01:26:30.269Z,47.409444
2019-05-17T01:27:33.323Z,47.409526
2019-05-17T01:28:36.495Z,47.409471
2019-05-17T01:29:39.277Z,47.409385
2019-05-17T01:30:42.294Z,47.409410
2019-05-17T01:31:46.508Z,47.409413
2019-05-17T01:32:50.348Z,47.409411
2019-05-17T01:33:53.323Z,47.409422
2019-05-17T01:34:56.577Z,47.409384
2019-05-17T01:35:59.284Z,47.409447
2019-05-17T01:37:02.306Z,47.409402
2019-05-17T01:38:04.271Z,47.409421
2019-05-17T01:39:17.069Z,47.409368
2019-05-17T01:40:17.332Z,47.409419
2019-05-17T01:41:20.296Z,47.409455
2019-05-17T01:42:23.289Z,47.409405
2019-05-17T01:43:27.347Z,47.409405
2019-05-17T01:44:30.297Z,47.409355
2019-05-17T01:45:33.302Z,47.409394
2019-05-17T01:46:37.024Z,47.409415
2019-05-17T01:47:40.290Z,47.409444
2019-05-17T01:48:43.298Z,47.409436
2019-05-17T01:49:46.979Z,47.409406
2019-05-17T01:50:50.283Z,47.409377
2019-05-17T01:51:53.314Z,47.409403
2019-05-17T01:52:56.602Z,47.409380
2019-05-17T01:53:59.298Z,47.409397
2019-05-17T01:55:02.319Z,47.409400
2019-05-17T01:56:07.363Z,47.409393
2019-05-17T01:57:11.275Z,47.409407
2019-05-17T01:58:16.267Z,47.409438
2019-05-17T01:59:21.262Z,47.409396
2019-05-17T02:00:26.438Z,47.409417
2019-05-17T02:01:29.315Z,47.409435
2019-05-17T02:02:32.274Z,47.409402
2019-05-17T02:03:37.310Z,47.409375
2019-05-17T02:04:40.272Z,47.409360
2019-05-17T02:05:43.320Z,47.409370
2019-05-17T02:06:46.691Z,47.409399
2019-05-17T02:07:50.299Z,47.409347
2019-05-17T02:08:53.277Z,47.409369
2019-05-17T02:09:56.860Z,47.409410
2019-05-17T02:11:00.315Z,47.409481
2019-05-17T02:12:03.309Z,47.409415
2019-05-17T02:13:06.676Z,47.409345
2019-05-17T02:14:09.299Z,47.409474
2019-05-17T02:15:12.319Z,47.409442
2019-05-17T02:16:16.392Z,47.409429
2019-05-17T02:17:19.303Z,47.409451
2019-05-17T02:18:22.273Z,47.409516
2019-05-17T02:19:26.552Z,47.409420
2019-05-17T02:20:29.307Z,47.409386
2019-05-17T02:21:32.315Z,47.409450
2019-05-17T02:22:36.743Z,47.409440
2019-05-17T02:23:40.284Z,47.409463
2019-05-17T02:24:43.290Z,47.409421
2019-05-17T02:25:47.173Z,47.409398
2019-05-17T02:26:50.373Z,47.409397
2019-05-17T02:27:53.288Z,47.409349
2019-05-17T02:28:56.304Z,47.409383
2019-05-17T02:30:02.208Z,47.409342
2019-05-17T02:31:07.284Z,47.409412
2019-05-17T02:32:12.851Z,47.409415
2019-05-17T02:33:15.292Z,47.409448
2019-05-17T02:34:18.296Z,47.409461
2019-05-17T02:35:22.883Z,47.409457
2019-05-17T02:36:26.345Z,47.409353
2019-05-17T02:37:29.325Z,47.409388
2019-05-17T02:38:33.241Z,47.409430
2019-05-17T02:39:52.532Z,47.409500
2019-05-17T02:40:44.335Z,47.409433
2019-05-17T02:41:47.311Z,47.409433
2019-05-17T02:42:53.288Z,47.409414
2019-05-17T02:43:56.311Z,47.409489
2019-05-17T02:45:02.643Z,47.409471
2019-05-17T02:46:05.303Z,47.409489
2019-05-17T02:47:08.305Z,47.409487
2019-05-17T02:48:13.362Z,47.409418
2019-05-17T02:49:16.263Z,47.409501
2019-05-17T02:50:19.283Z,47.409519
2019-05-17T02:51:23.656Z,47.409521
2019-05-17T02:52:27.348Z,47.409539
2019-05-17T02:53:33.156Z,47.409490
2019-05-17T02:54:36.289Z,47.409426
2019-05-17T02:55:39.325Z,47.409419
2019-05-17T02:56:43.640Z,47.409439
2019-05-17T02:57:47.338Z,47.409289
2019-05-17T02:58:53.070Z,47.409426
2019-05-17T02:59:56.303Z,47.409398
2019-05-17T03:00:59.278Z,47.409265
2019-05-17T03:02:03.619Z,47.409403
2019-05-17T03:03:07.340Z,47.409259
2019-05-17T03:04:13.047Z,47.409253
2019-05-17T03:05:16.307Z,47.409208
2019-05-17T03:06:22.541Z,47.409255
2019-05-17T03:07:26.306Z,47.409219
2019-05-17T03:08:29.319Z,47.409193
2019-05-17T03:09:33.561Z,47.409261
2019-05-17T03:10:37.293Z,47.409249
2019-05-17T03:11:42.959Z,47.409270
2019-05-17T03:12:46.290Z,47.409377
2019-05-17T03:13:52.355Z,47.409440
2019-05-17T03:14:55.310Z,47.409395
2019-05-17T03:15:58.280Z,47.409476
2019-05-17T03:17:03.022Z,47.409435
2019-05-17T03:18:06.291Z,47.409517
2019-05-17T03:19:12.766Z,47.409425
2019-05-17T03:20:16.279Z,47.409424
2019-05-17T03:21:22.730Z,47.409414
2019-05-17T03:22:25.289Z,47.409488
2019-05-17T03:23:28.292Z,47.409584
2019-05-17T03:24:33.286Z,47.409580
2019-05-17T03:25:36.316Z,47.409647
2019-05-17T03:26:39.295Z,47.409557
2019-05-17T03:27:42.966Z,47.409411
2019-05-17T03:28:46.302Z,47.409500
2019-05-17T03:29:49.302Z,47.409349
2019-05-17T03:30:56.395Z,47.409486
2019-05-17T03:32:07.311Z,47.409465
2019-05-17T03:33:08.462Z,47.409551
2019-05-17T03:34:16.892Z,47.409659
2019-05-17T03:35:19.356Z,47.409559
2019-05-17T03:36:26.227Z,47.409580
2019-05-17T03:37:36.508Z,47.409589
2019-05-17T03:38:37.292Z,47.409489
2019-05-17T03:39:42.769Z,47.409456
2019-05-17T03:41:13.856Z,47.409450
2019-05-17T03:41:54.338Z,47.409389
2019-05-17T03:42:57.251Z,47.409422
2019-05-17T03:44:03.173Z,47.409457
2019-05-17T03:45:06.352Z,47.409427
2019-05-17T03:46:09.270Z,47.409423
2019-05-17T03:47:13.102Z,47.409458
2019-05-17T03:48:16.270Z,47.409458
2019-05-17T03:49:22.086Z,47.409452
2019-05-17T03:50:25.311Z,47.409464
2019-05-17T03:51:28.284Z,47.409420
2019-05-17T03:52:33.305Z,47.409437
2019-05-17T03:53:36.309Z,47.409432
2019-05-17T03:54:39.330Z,47.409445
2019-05-17T03:55:42.970Z,47.409539
2019-05-17T03:56:46.311Z,47.409546
2019-05-17T03:57:49.264Z,47.409534
2019-05-17T03:58:53.037Z,47.409426
2019-05-17T03:59:56.311Z,47.409448
2019-05-17T04:00:59.300Z,47.409475
2019-05-17T04:02:03.206Z,47.409418
2019-05-17T04:03:06.321Z,47.409365
2019-05-17T04:04:09.271Z,47.409388
2019-05-17T04:05:12.871Z,47.409479
2019-05-17T04:06:16.293Z,47.409486
2019-05-17T04:07:19.275Z,47.409453
2019-05-17T04:08:22.870Z,47.409531
2019-05-17T04:09:26.306Z,47.409524
2019-05-17T04:10:29.360Z,47.409495
2019-05-17T04:11:36.274Z,47.409483
2019-05-17T04:12:39.295Z,47.409414
2019-05-17T04:13:42.985Z,47.409404
2019-05-17T04:14:46.266Z,47.409305
2019-05-17T04:15:52.721Z,47.409304
2019-05-17T04:16:56.292Z,47.409249
2019-05-17T04:17:59.317Z,47.409299
2019-05-17T04:19:03.153Z,47.409334
2019-05-17T04:20:06.331Z,47.409406
2019-05-17T04:21:12.312Z,47.409357
2019-05-17T04:22:15.321Z,47.409377
2019-05-17T04:23:18.273Z,47.409368
2019-05-17T04:24:23.087Z,47.409351
2019-05-17T04:25:25.354Z,47.409326
2019-05-17T04:26:28.275Z,47.409336
2019-05-17T04:27:32.693Z,47.409303
2019-05-17T04:28:36.324Z,47.409416
2019-05-17T04:29:42.411Z,47.409438
2019-05-17T04:30:45.329Z,47.409305
2019-05-17T04:31:48.311Z,47.409338
2019-05-17T04:32:52.693Z,47.409370
2019-05-17T04:33:56.318Z,47.409432
2019-05-17T04:34:59.289Z,47.409444
2019-05-17T04:36:02.814Z,47.409407
2019-05-17T04:37:06.334Z,47.409271
2019-05-17T04:38:09.263Z,47.409374
2019-05-17T04:39:13.394Z,47.409384
2019-05-17T04:40:16.292Z,47.409341
2019-05-17T04:41:36.136Z,47.409364
2019-05-17T04:42:27.307Z,47.409344
2019-05-17T04:43:32.991Z,47.409349
2019-05-17T04:44:36.279Z,47.409297
2019-05-17T04:45:42.354Z,47.409243
2019-05-17T04:46:45.292Z,47.409360
2019-05-17T04:47:48.289Z,47.409348
2019-05-17T04:48:53.629Z,47.409458
2019-05-17T04:49:57.341Z,47.409417
2019-05-17T04:51:02.486Z,47.409331
2019-05-17T04:52:06.326Z,47.409430
2019-05-17T04:53:09.265Z,47.409347
2019-05-17T04:54:13.760Z,47.409337
2019-05-17T04:55:17.337Z,47.409356
2019-05-17T04:56:22.712Z,47.409328
2019-05-17T04:57:26.300Z,47.409394
2019-05-17T04:58:29.321Z,47.409386
2019-05-17T04:59:33.912Z,47.409372
2019-05-17T05:00:37.343Z,47.409366
2019-05-17T05:01:43.428Z,47.409380
2019-05-17T05:02:46.300Z,47.409440
2019-05-17T05:03:52.289Z,47.409447
2019-05-17T05:04:55.340Z,47.409441
2019-05-17T05:05:58.331Z,47.409437
2019-05-17T05:07:03.129Z,47.409425
2019-05-17T05:08:06.295Z,47.409424
2019-05-17T05:09:12.472Z,47.409439
2019-05-17T05:10:16.288Z,47.409462
2019-05-17T05:11:19.359Z,47.409441
2019-05-17T05:12:22.879Z,47.409434
2019-05-17T05:13:26.297Z,47.409425
2019-05-17T05:14:29.306Z,47.409409
2019-05-17T05:15:32.389Z,47.409370
2019-05-17T05:16:35.375Z,47.409366
2019-05-17T05:17:38.339Z,47.409353
2019-05-17T05:18:42.136Z,47.409355
2019-05-17T05:19:45.331Z,47.409381
2019-05-17T05:20:48.315Z,47.409403
2019-05-17T05:21:52.062Z,47.409411
2019-05-17T05:22:55.354Z,47.409373
2019-05-17T05:23:58.291Z,47.409358
2019-05-17T05:25:02.125Z,47.409397
2019-05-17T05:26:05.330Z,47.409446
2019-05-17T05:27:08.373Z,47.409418
2019-05-17T05:28:11.507Z,47.409351
2019-05-17T05:29:14.297Z,47.409319
2019-05-17T05:30:17.298Z,47.409360
2019-05-17T05:31:22.625Z,47.409409
2019-05-17T05:32:25.351Z,47.409411
2019-05-17T05:33:28.316Z,47.409399
2019-05-17T05:34:32.197Z,47.409402
2019-05-17T05:35:35.341Z,47.409418
2019-05-17T05:36:38.326Z,47.409372
2019-05-17T05:37:42.313Z,47.409405
2019-05-17T05:38:45.319Z,47.409427
2019-05-17T05:39:48.282Z,47.409430
2019-05-17T05:40:52.128Z,47.409428
2019-05-17T05:42:06.348Z,47.409437
2019-05-17T05:43:03.315Z,47.409514
2019-05-17T05:44:06.317Z,47.409550
2019-05-17T05:45:09.287Z,47.409430
2019-05-17T05:46:12.262Z,47.409429
2019-05-17T05:47:15.383Z,47.409511
2019-05-17T05:48:18.333Z,47.409385
2019-05-17T05:49:21.660Z,47.409454
2019-05-17T05:50:25.321Z,47.409567
2019-05-17T05:51:28.294Z,47.409546
2019-05-17T05:52:32.334Z,47.409637
2019-05-17T05:53:35.321Z,47.409611
2019-05-17T05:54:37.320Z,47.409747
2019-05-17T05:55:42.615Z,47.409802
2019-05-17T05:56:45.334Z,47.409673
2019-05-17T05:57:48.355Z,47.409656
2019-05-17T05:58:52.305Z,47.409551
2019-05-17T05:59:55.277Z,47.409491
2019-05-17T06:00:58.299Z,47.409482
2019-05-17T06:02:01.743Z,47.409463
2019-05-17T06:03:05.417Z,47.409484
2019-05-17T06:04:08.274Z,47.409399
2019-05-17T06:05:14.722Z,47.409402
2019-05-17T06:06:21.424Z,47.409506
2019-05-17T06:07:24.367Z,47.409487
2019-05-17T06:08:27.349Z,47.409491
2019-05-17T06:09:31.826Z,47.409459
2019-05-17T06:10:35.323Z,47.409364
2019-05-17T06:11:38.258Z,47.409467
2019-05-17T06:12:43.348Z,47.409512
2019-05-17T06:13:47.304Z,47.409493
2019-05-17T06:14:52.236Z,47.409507
2019-05-17T06:15:55.318Z,47.409430
2019-05-17T06:16:58.309Z,47.409434
2019-05-17T06:18:02.969Z,47.409458
2019-05-17T06:19:07.414Z,47.409382
2019-05-17T06:20:11.714Z,47.409287
2019-05-17T06:21:15.320Z,47.409377
2019-05-17T06:22:18.312Z,47.409425
2019-05-17T06:23:23.217Z,47.409442
2019-05-17T06:24:27.372Z,47.409489
2019-05-17T06:25:33.752Z,47.409439
2019-05-17T06:26:37.324Z,47.409389
2019-05-17T06:27:41.538Z,47.409459
2019-05-17T06:28:45.309Z,47.409538
2019-05-17T06:29:48.326Z,47.409502
2019-05-17T06:30:52.172Z,47.409456
2019-05-17T06:31:55.337Z,47.409457
2019-05-17T06:32:58.303Z,47.409476
2019-05-17T06:34:01.942Z,47.409392
2019-05-17T06:35:05.382Z,47.409475
2019-05-17T06:36:09.384Z,47.409458
2019-05-17T06:37:13.311Z,47.409370
2019-05-17T06:38:18.369Z,47.409301
2019-05-17T06:39:22.390Z,47.409351
2019-05-17T06:40:25.376Z,47.409483
2019-05-17T06:41:28.322Z,47.409585
2019-05-17T06:42:40.296Z,47.409578
2019-05-17T06:43:41.495Z,47.409407
2019-05-17T06:44:45.308Z,47.409351
2019-05-17T06:45:48.362Z,47.409408
2019-05-17T06:46:51.884Z,47.409419
2019-05-17T06:47:55.299Z,47.409449
2019-05-17T06:48:58.331Z,47.409481
2019-05-17T06:50:03.148Z,47.409441
2019-05-17T06:51:06.337Z,47.409449
2019-05-17T06:52:11.514Z,47.409427
2019-05-17T06:53:15.324Z,47.409469
2019-05-17T06:54:18.308Z,47.409418
2019-05-17T06:55:21.313Z,47.409468
2019-05-17T06:56:24.334Z,47.409434
2019-05-17T06:57:27.313Z,47.409423
2019-05-17T06:58:31.543Z,47.409405
2019-05-17T06:59:34.355Z,47.409446
2019-05-17T07:00:37.307Z,47.409435
2019-05-17T07:01:40.973Z,47.409444
2019-05-17T07:02:44.279Z,47.409455
2019-05-17T07:03:49.435Z,47.409435
2019-05-17T07:04:55.373Z,47.409411
2019-05-17T07:05:59.625Z,47.409418
2019-05-17T07:07:03.352Z,47.409461
2019-05-17T07:08:06.377Z,47.409450
2019-05-17T07:09:10.045Z,47.409450
2019-05-17T07:10:13.306Z,47.409393
2019-05-17T07:11:16.346Z,47.409406
2019-05-17T07:12:20.209Z,47.409426
2019-05-17T07:13:23.340Z,47.409451
2019-05-17T07:14:26.293Z,47.409393
2019-05-17T07:15:43.372Z,47.409384
2019-05-17T07:16:39.486Z,47.409390
2019-05-17T07:17:42.306Z,47.409385
2019-05-17T07:18:45.343Z,47.409362
2019-05-17T07:19:50.595Z,47.409366
2019-05-17T07:20:54.361Z,47.409369
2019-05-17T07:21:59.663Z,47.409393
2019-05-17T07:23:03.345Z,47.409383
2019-05-17T07:24:06.315Z,47.409407
2019-05-17T07:25:10.886Z,47.409362
2019-05-17T07:26:14.336Z,47.409373
2019-05-17T07:27:19.250Z,47.409397
2019-05-17T07:28:22.372Z,47.409381
2019-05-17T07:29:25.312Z,47.409415
2019-05-17T07:30:30.417Z,47.409340
2019-05-17T07:31:34.375Z,47.409377
2019-05-17T07:32:37.351Z,47.409380
2019-05-17T07:33:42.385Z,47.409371
2019-05-17T07:34:45.387Z,47.409366
2019-05-17T07:35:47.323Z,47.409373
2019-05-17T07:36:50.452Z,47.409381
2019-05-17T07:37:53.341Z,47.409400
2019-05-17T07:38:56.359Z,47.409372
2019-05-17T07:40:04.655Z,47.409359
2019-05-17T07:41:07.340Z,47.409375
2019-05-17T07:42:10.315Z,47.409414
2019-05-17T07:43:14.897Z,47.409357
2019-05-17T07:44:20.386Z,47.409349
2019-05-17T07:45:23.311Z,47.409387
2019-05-17T07:46:26.342Z,47.409322
2019-05-17T07:47:29.489Z,47.409340
2019-05-17T07:48:32.297Z,47.409317
2019-05-17T07:49:35.391Z,47.409300
2019-05-17T07:50:39.763Z,47.409300
2019-05-17T07:51:44.331Z,47.409324
2019-05-17T07:52:49.807Z,47.409368
2019-05-17T07:53:53.427Z,47.409327
2019-05-17T07:54:56.288Z,47.409328
2019-05-17T07:55:59.765Z,47.409348
2019-05-17T07:57:03.301Z,47.409355
2019-05-17T07:58:06.345Z,47.409352
2019-05-17T07:59:09.536Z,47.409374
2019-05-17T08:00:14.369Z,47.409366
2019-05-17T08:01:17.316Z,47.409360
2019-05-17T08:02:20.347Z,47.409342
2019-05-17T08:03:24.964Z,47.409300
2019-05-17T08:04:29.939Z,47.409250
2019-05-17T08:05:33.301Z,47.409311
2019-05-17T08:06:36.334Z,47.409339
2019-05-17T08:07:40.305Z,47.409313
2019-05-17T08:08:44.361Z,47.409288
2019-05-17T08:09:47.292Z,47.409375
2019-05-17T08:10:50.942Z,47.409417
2019-05-17T08:11:54.320Z,47.409414
2019-05-17T08:12:59.772Z,47.409331
2019-05-17T08:14:03.353Z,47.409413
2019-05-17T08:15:06.313Z,47.409412
2019-05-17T08:16:10.285Z,47.409431
2019-05-17T08:17:14.322Z,47.409434
2019-05-17T08:18:17.332Z,47.409427
2019-05-17T08:19:20.534Z,47.409449
2019-05-17T08:20:23.309Z,47.409388
2019-05-17T08:21:26.330Z,47.409379
2019-05-17T08:22:29.435Z,47.409337
2019-05-17T08:23:32.312Z,47.409438
2019-05-17T08:24:35.311Z,47.409477
2019-05-17T08:25:52.097Z,47.409464
2019-05-17T08:26:46.309Z,47.409450
2019-05-17T08:27:50.305Z,47.409494
2019-05-17T08:28:53.323Z,47.409407
2019-05-17T08:29:56.357Z,47.409372
2019-05-17T08:31:00.997Z,47.409378
2019-05-17T08:32:04.366Z,47.409400
2019-05-17T08:33:07.357Z,47.409434
2019-05-17T08:34:10.517Z,47.409405
2019-05-17T08:35:13.384Z,47.409427
2019-05-17T08:36:16.330Z,47.409423
2019-05-17T08:37:20.447Z,47.409428
2019-05-17T08:38:24.357Z,47.409417
2019-05-17T08:39:27.302Z,47.409390
2019-05-17T08:40:30.652Z,47.409369
2019-05-17T08:41:34.324Z,47.409396
2019-05-17T08:42:37.316Z,47.409441
2019-05-17T08:43:46.649Z,47.409428
2019-05-17T08:44:49.785Z,47.409387
2019-05-17T08:45:53.309Z,47.409313
2019-05-17T08:46:56.358Z,47.409450
2019-05-17T08:48:00.351Z,47.409423
2019-05-17T08:49:03.366Z,47.409454
2019-05-17T08:50:06.317Z,47.409432
2019-05-17T08:51:10.814Z,47.409374
2019-05-17T08:52:13.360Z,47.409376
2019-05-17T08:53:16.295Z,47.409351
2019-05-17T08:54:19.638Z,47.409393
2019-05-17T08:55:22.303Z,47.409369
2019-05-17T08:56:24.521Z,47.409440
2019-05-17T08:57:30.073Z,47.409389
2019-05-17T08:58:33.330Z,47.409427
2019-05-17T08:59:36.376Z,47.409306
2019-05-17T09:00:40.633Z,47.409325
2019-05-17T09:01:44.358Z,47.409293
2019-05-17T09:02:49.843Z,47.409231
2019-05-17T09:03:53.317Z,47.409247
2019-05-17T09:04:56.357Z,47.409360
2019-05-17T09:06:02.326Z,47.409324
2019-05-17T09:07:06.300Z,47.409297
2019-05-17T09:08:10.460Z,47.409252
2019-05-17T09:09:14.292Z,47.409224
2019-05-17T09:10:17.353Z,47.409343
2019-05-17T09:11:20.315Z,47.409441
2019-05-17T09:12:23.314Z,47.409356
2019-05-17T09:13:26.310Z,47.409147
2019-05-17T09:14:29.475Z,47.409201
2019-05-17T09:15:32.350Z,47.409301
2019-05-17T09:16:35.307Z,47.409214
2019-05-17T09:17:39.709Z,47.409261
2019-05-17T09:18:43.330Z,47.409359
2019-05-17T09:19:46.426Z,47.409457
2019-05-17T09:20:49.593Z,47.409462
2019-05-17T09:21:53.301Z,47.409576
2019-05-17T09:22:56.303Z,47.409495
2019-05-17T09:23:59.817Z,47.409491
2019-05-17T09:25:03.317Z,47.409594
2019-05-17T09:26:06.349Z,47.409449
2019-05-17T09:27:10.162Z,47.409157
2019-05-17T09:28:13.330Z,47.409260
2019-05-17T09:29:16.300Z,47.409334
2019-05-17T09:30:20.332Z,47.409419
2019-05-17T09:31:23.394Z,47.409387
2019-05-17T09:32:26.289Z,47.409330
2019-05-17T09:33:30.033Z,47.409360
2019-05-17T09:34:33.318Z,47.409340
2019-05-17T09:35:36.319Z,47.409300
2019-05-17T09:36:40.916Z,47.409355
2019-05-17T09:37:44.359Z,47.409374
2019-05-17T09:38:49.316Z,47.409324
2019-05-17T09:39:52.275Z,47.409359
2019-05-17T09:40:55.341Z,47.409369
2019-05-17T09:41:59.585Z,47.409334
2019-05-17T09:43:03.303Z,47.409365
2019-05-17T09:44:12.830Z,47.409310
2019-05-17T09:45:14.322Z,47.409312
2019-05-17T09:46:19.484Z,47.409316
2019-05-17T09:47:23.374Z,47.409397
2019-05-17T09:48:26.323Z,47.409383
2019-05-17T09:49:29.948Z,47.409359
2019-05-17T09:50:33.334Z,47.409305
2019-05-17T09:51:36.256Z,47.409306
2019-05-17T09:52:40.704Z,47.409320
2019-05-17T09:53:44.326Z,47.409342
2019-05-17T09:54:47.299Z,47.409331
2019-05-17T09:55:50.300Z,47.409289
2019-05-17T09:56:53.292Z,47.409322
2019-05-17T09:57:56.411Z,47.409345
2019-05-17T09:59:00.368Z,47.409350
2019-05-17T10:00:03.334Z,47.409355
2019-05-17T10:01:06.300Z,47.409336
2019-05-17T10:02:09.555Z,47.409365
2019-05-17T10:03:12.381Z,47.409354
2019-05-17T10:04:15.330Z,47.409340
2019-05-17T10:05:20.147Z,47.409343
2019-05-17T10:06:23.306Z,47.409353
2019-05-17T10:07:26.353Z,47.409358
2019-05-17T10:08:29.343Z,47.409370
2019-05-17T10:09:32.326Z,47.409376
2019-05-17T10:10:35.327Z,47.409399
2019-05-17T10:11:39.913Z,47.409382
2019-05-17T10:12:43.319Z,47.409354
2019-05-17T10:13:46.294Z,47.409362
2019-05-17T10:14:49.864Z,47.409345
2019-05-17T10:15:53.328Z,47.409375
2019-05-17T10:16:56.297Z,47.409386
2019-05-17T10:18:00.583Z,47.409347
2019-05-17T10:19:04.340Z,47.409375
2019-05-17T10:20:07.314Z,47.409386
2019-05-17T10:21:10.579Z,47.409390
2019-05-17T10:22:14.298Z,47.409354
2019-05-17T10:23:19.530Z,47.409370
2019-05-17T10:24:34.932Z,47.409374
2019-05-17T10:25:31.307Z,47.409390
2019-05-17T10:26:34.347Z,47.409363
2019-05-17T10:27:37.290Z,47.409409
2019-05-17T10:28:40.294Z,47.409417
2019-05-17T10:29:43.372Z,47.409361
2019-05-17T10:30:46.313Z,47.409400
2019-05-17T10:31:50.419Z,47.409376
2019-05-17T10:32:53.318Z,47.409369
2019-05-17T10:33:58.317Z,47.409420
2019-05-17T10:35:03.302Z,47.409415
2019-05-17T10:36:06.295Z,47.409414
2019-05-17T10:37:10.487Z,47.409392
2019-05-17T10:38:12.349Z,47.409358
2019-05-17T10:39:15.311Z,47.409413
2019-05-17T10:40:20.384Z,47.409434
2019-05-17T10:41:24.300Z,47.409306
2019-05-17T10:42:27.310Z,47.409334
2019-05-17T10:43:30.345Z,47.409343
2019-05-17T10:44:46.269Z,47.409330
2019-05-17T10:45:41.302Z,47.409309
2019-05-17T10:46:44.341Z,47.409374
2019-05-17T10:47:47.370Z,47.409422
2019-05-17T10:48:50.305Z,47.409379
2019-05-17T10:49:52.326Z,47.409395
2019-05-17T10:50:55.321Z,47.409454
2019-05-17T10:51:59.948Z,47.409423
2019-05-17T10:53:03.428Z,47.409361
2019-05-17T10:54:06.344Z,47.409407
2019-05-17T10:55:10.497Z,47.409359
2019-05-17T10:56:14.287Z,47.409433
2019-05-17T10:57:19.288Z,47.409435
2019-05-17T10:58:22.373Z,47.409384
2019-05-17T10:59:25.326Z,47.409360
2019-05-17T11:00:30.380Z,47.409417
2019-05-17T11:01:33.332Z,47.409476
2019-05-17T11:02:36.296Z,47.409433
2019-05-17T11:03:39.840Z,47.409433
2019-05-17T11:04:43.314Z,47.409331
2019-05-17T11:05:46.327Z,47.409352
2019-05-17T11:06:50.115Z,47.409427
2019-05-17T11:07:53.310Z,47.409443
2019-05-17T11:08:56.326Z,47.409249
2019-05-17T11:10:00.383Z,47.409241
2019-05-17T11:11:03.331Z,47.409347
2019-05-17T11:12:06.272Z,47.409385
2019-05-17T11:13:09.315Z,47.409328
2019-05-17T11:14:12.385Z,47.409361
2019-05-17T11:15:15.333Z,47.409409
2019-05-17T11:16:18.318Z,47.409440
2019-05-17T11:17:21.312Z,47.409435
2019-05-17T11:18:24.343Z,47.409396
2019-05-17T11:19:27.329Z,47.409492
2019-05-17T11:20:30.312Z,47.409406
2019-05-17T11:21:33.301Z,47.409395
2019-05-17T11:22:36.343Z,47.409452
2019-05-17T11:23:39.299Z,47.409256
2019-05-17T11:24:42.335Z,47.409375
2019-05-17T11:25:46.387Z,47.409578
2019-05-17T11:26:49.317Z,47.409520
2019-05-17T11:27:52.306Z,47.409477
2019-05-17T11:28:55.309Z,47.409320
2019-05-17T11:29:58.358Z,47.409345
2019-05-17T11:31:01.279Z,47.409480
2019-05-17T11:32:04.329Z,47.409570
2019-05-17T11:33:07.340Z,47.409594
2019-05-17T11:34:10.408Z,47.409501
2019-05-17T11:35:13.316Z,47.409522
2019-05-17T11:36:16.298Z,47.409473
2019-05-17T11:37:19.328Z,47.409582
2019-05-17T11:38:22.298Z,47.409560
2019-05-17T11:39:25.334Z,47.409542
2019-05-17T11:40:28.357Z,47.409568
2019-05-17T11:41:31.354Z,47.409552
2019-05-17T11:42:34.284Z,47.409638
2019-05-17T11:43:37.333Z,47.409598
2019-05-17T11:44:40.343Z,47.409517
2019-05-17T11:45:43.328Z,47.409504
2019-05-17T11:46:46.331Z,47.409515
2019-05-17T11:47:49.315Z,47.409548
2019-05-17T11:48:52.317Z,47.409543
2019-05-17T11:49:55.326Z,47.409542
2019-05-17T11:50:58.356Z,47.409549
2019-05-17T11:52:01.300Z,47.409483
2019-05-17T11:53:04.320Z,47.409501
2019-05-17T11:54:07.330Z,47.409516
2019-05-17T11:55:10.320Z,47.409567
2019-05-17T11:56:13.359Z,47.409625
2019-05-17T11:57:16.320Z,47.409562
2019-05-17T11:58:19.283Z,47.409508
2019-05-17T11:59:22.297Z,47.409488
2019-05-17T12:00:25.353Z,47.409584
2019-05-17T12:01:28.326Z,47.409578
2019-05-17T12:02:31.327Z,47.409502
2019-05-17T12:03:33.316Z,47.409624
2019-05-17T12:04:36.293Z,47.409556
2019-05-17T12:05:39.339Z,47.409565
2019-05-17T12:06:42.318Z,47.409590